sensor_id;sensor_type;location;lat;lon;timestamp;P1;durP1;ratioP1;P2;durP2;ratioP2
15256;SDS011;7731;50.720;6.912;2024-03-06T00:00:42;7.30;;;5.73;;
15256;SDS011;7731;50.720;6.912;2024-03-06T00:03:12;6.73;;;6.03;;
15256;SDS011;7731;50.720;6.912;2024-03-06T00:05:43;7.47;;;6.57;;
15256;SDS011;7731;50.720;6.912;2024-03-06T00:08:14;12.70;;;10.83;;
15256;SDS011;7731;50.720;6.912;2024-03-06T00:10:45;10.70;;;9.50;;
15256;SDS011;7731;50.720;6.912;2024-03-06T00:13:19;7.93;;;7.13;;
15256;SDS011;7731;50.720;6.912;2024-03-06T00:15:52;5.03;;;4.40;;
15256;SDS011;7731;50.720;6.912;2024-03-06T00:18:23;3.53;;;3.23;;
15256;SDS011;7731;50.720;6.912;2024-03-06T00:20:54;3.83;;;3.20;;
15256;SDS011;7731;50.720;6.912;2024-03-06T00:23:25;3.67;;;3.33;;
15256;SDS011;7731;50.720;6.912;2024-03-06T00:25:55;4.37;;;3.60;;
15256;SDS011;7731;50.720;6.912;2024-03-06T00:28:27;4.03;;;3.63;;
15256;SDS011;7731;50.720;6.912;2024-03-06T00:31:00;4.20;;;3.60;;
15256;SDS011;7731;50.720;6.912;2024-03-06T00:33:31;4.40;;;3.27;;
15256;SDS011;7731;50.720;6.912;2024-03-06T00:36:01;4.23;;;3.20;;
15256;SDS011;7731;50.720;6.912;2024-03-06T00:38:32;5.60;;;3.60;;
15256;SDS011;7731;50.720;6.912;2024-03-06T00:41:03;4.37;;;3.17;;
15256;SDS011;7731;50.720;6.912;2024-03-06T00:43:34;3.63;;;3.20;;
15256;SDS011;7731;50.720;6.912;2024-03-06T00:46:07;3.97;;;3.17;;
15256;SDS011;7731;50.720;6.912;2024-03-06T00:48:38;5.17;;;3.37;;
15256;SDS011;7731;50.720;6.912;2024-03-06T00:51:08;4.50;;;3.50;;
15256;SDS011;7731;50.720;6.912;2024-03-06T00:53:39;4.23;;;3.30;;
15256;SDS011;7731;50.720;6.912;2024-03-06T00:56:09;3.70;;;3.20;;
15256;SDS011;7731;50.720;6.912;2024-03-06T00:58:41;3.53;;;3.23;;
15256;SDS011;7731;50.720;6.912;2024-03-06T01:01:15;5.07;;;3.33;;
15256;SDS011;7731;50.720;6.912;2024-03-06T01:03:47;4.77;;;3.83;;
15256;SDS011;7731;50.720;6.912;2024-03-06T01:06:18;4.97;;;3.47;;
15256;SDS011;7731;50.720;6.912;2024-03-06T01:08:51;3.97;;;3.57;;
15256;SDS011;7731;50.720;6.912;2024-03-06T01:11:22;4.63;;;3.60;;
15256;SDS011;7731;50.720;6.912;2024-03-06T01:13:53;3.93;;;3.57;;
15256;SDS011;7731;50.720;6.912;2024-03-06T01:16:28;5.40;;;3.40;;
15256;SDS011;7731;50.720;6.912;2024-03-06T01:18:59;3.73;;;3.20;;
15256;SDS011;7731;50.720;6.912;2024-03-06T01:21:29;3.70;;;3.30;;
15256;SDS011;7731;50.720;6.912;2024-03-06T01:24:01;4.27;;;3.23;;
15256;SDS011;7731;50.720;6.912;2024-03-06T01:26:31;3.77;;;3.40;;
15256;SDS011;7731;50.720;6.912;2024-03-06T01:29:01;4.93;;;4.00;;
15256;SDS011;7731;50.720;6.912;2024-03-06T01:31:34;4.07;;;3.73;;
15256;SDS011;7731;50.720;6.912;2024-03-06T01:34:05;3.90;;;3.50;;
15256;SDS011;7731;50.720;6.912;2024-03-06T01:36:35;3.43;;;3.13;;
15256;SDS011;7731;50.720;6.912;2024-03-06T01:39:06;3.77;;;3.23;;
15256;SDS011;7731;50.720;6.912;2024-03-06T01:41:36;4.07;;;3.67;;
15256;SDS011;7731;50.720;6.912;2024-03-06T01:44:07;3.83;;;3.37;;
15256;SDS011;7731;50.720;6.912;2024-03-06T01:46:40;3.97;;;3.00;;
15256;SDS011;7731;50.720;6.912;2024-03-06T01:49:12;4.07;;;3.00;;
15256;SDS011;7731;50.720;6.912;2024-03-06T01:51:58;3.87;;;2.93;;
15256;SDS011;7731;50.720;6.912;2024-03-06T01:54:31;3.30;;;3.00;;
15256;SDS011;7731;50.720;6.912;2024-03-06T01:57:02;4.47;;;3.00;;
15256;SDS011;7731;50.720;6.912;2024-03-06T01:59:35;3.17;;;2.63;;
15256;SDS011;7731;50.720;6.912;2024-03-06T02:02:08;3.90;;;3.23;;
15256;SDS011;7731;50.720;6.912;2024-03-06T02:04:40;4.37;;;3.23;;
15256;SDS011;7731;50.720;6.912;2024-03-06T02:07:11;3.47;;;3.10;;
15256;SDS011;7731;50.720;6.912;2024-03-06T02:09:45;4.07;;;2.93;;
15256;SDS011;7731;50.720;6.912;2024-03-06T02:12:15;4.13;;;2.90;;
15256;SDS011;7731;50.720;6.912;2024-03-06T02:14:46;3.80;;;3.00;;
15256;SDS011;7731;50.720;6.912;2024-03-06T02:17:23;3.93;;;3.07;;
15256;SDS011;7731;50.720;6.912;2024-03-06T02:19:56;3.20;;;2.90;;
15256;SDS011;7731;50.720;6.912;2024-03-06T02:22:30;4.53;;;3.13;;
15256;SDS011;7731;50.720;6.912;2024-03-06T02:25:00;3.77;;;3.23;;
15256;SDS011;7731;50.720;6.912;2024-03-06T02:27:31;4.60;;;3.13;;
15256;SDS011;7731;50.720;6.912;2024-03-06T02:30:01;5.57;;;3.60;;
15256;SDS011;7731;50.720;6.912;2024-03-06T02:32:32;5.40;;;3.37;;
15256;SDS011;7731;50.720;6.912;2024-03-06T02:35:03;3.60;;;3.30;;
15256;SDS011;7731;50.720;6.912;2024-03-06T02:37:39;4.87;;;3.50;;
15256;SDS011;7731;50.720;6.912;2024-03-06T02:40:11;3.37;;;2.93;;
15256;SDS011;7731;50.720;6.912;2024-03-06T02:42:41;4.03;;;3.10;;
15256;SDS011;7731;50.720;6.912;2024-03-06T02:45:11;4.23;;;3.30;;
15256;SDS011;7731;50.720;6.912;2024-03-06T02:47:42;3.27;;;2.97;;
15256;SDS011;7731;50.720;6.912;2024-03-06T02:50:14;3.37;;;2.83;;
15256;SDS011;7731;50.720;6.912;2024-03-06T02:52:47;6.53;;;3.50;;
15256;SDS011;7731;50.720;6.912;2024-03-06T02:55:18;3.87;;;3.47;;
15256;SDS011;7731;50.720;6.912;2024-03-06T02:57:49;3.63;;;3.17;;
15256;SDS011;7731;50.720;6.912;2024-03-06T03:00:21;3.57;;;3.20;;
15256;SDS011;7731;50.720;6.912;2024-03-06T03:02:55;4.97;;;3.53;;
15256;SDS011;7731;50.720;6.912;2024-03-06T03:05:25;3.60;;;3.30;;
15256;SDS011;7731;50.720;6.912;2024-03-06T03:08:00;4.67;;;3.70;;
15256;SDS011;7731;50.720;6.912;2024-03-06T03:10:32;3.97;;;3.40;;
15256;SDS011;7731;50.720;6.912;2024-03-06T03:13:02;3.57;;;3.27;;
15256;SDS011;7731;50.720;6.912;2024-03-06T03:15:36;3.53;;;3.23;;
15256;SDS011;7731;50.720;6.912;2024-03-06T03:18:07;3.73;;;3.33;;
15256;SDS011;7731;50.720;6.912;2024-03-06T03:20:38;4.13;;;3.43;;
15256;SDS011;7731;50.720;6.912;2024-03-06T03:23:11;3.80;;;3.20;;
15256;SDS011;7731;50.720;6.912;2024-03-06T03:25:49;5.97;;;3.83;;
15256;SDS011;7731;50.720;6.912;2024-03-06T03:28:19;3.70;;;3.40;;
15256;SDS011;7731;50.720;6.912;2024-03-06T03:30:50;4.20;;;3.67;;
15256;SDS011;7731;50.720;6.912;2024-03-06T03:33:20;4.03;;;3.30;;
15256;SDS011;7731;50.720;6.912;2024-03-06T03:35:51;4.90;;;3.53;;
15256;SDS011;7731;50.720;6.912;2024-03-06T03:38:26;4.00;;;3.53;;
15256;SDS011;7731;50.720;6.912;2024-03-06T03:41:00;3.70;;;3.37;;
15256;SDS011;7731;50.720;6.912;2024-03-06T03:43:30;3.57;;;3.03;;
15256;SDS011;7731;50.720;6.912;2024-03-06T03:46:01;3.50;;;3.20;;
15256;SDS011;7731;50.720;6.912;2024-03-06T03:48:33;4.43;;;3.03;;
15256;SDS011;7731;50.720;6.912;2024-03-06T03:51:04;4.97;;;3.23;;
15256;SDS011;7731;50.720;6.912;2024-03-06T03:53:38;3.93;;;2.87;;
15256;SDS011;7731;50.720;6.912;2024-03-06T03:56:09;4.20;;;2.80;;
15256;SDS011;7731;50.720;6.912;2024-03-06T03:58:40;5.73;;;3.57;;
15256;SDS011;7731;50.720;6.912;2024-03-06T04:01:10;2.87;;;2.60;;
15256;SDS011;7731;50.720;6.912;2024-03-06T04:03:41;3.10;;;2.80;;
15256;SDS011;7731;50.720;6.912;2024-03-06T04:06:11;2.47;;;2.27;;
15256;SDS011;7731;50.720;6.912;2024-03-06T04:08:46;3.13;;;2.33;;
15256;SDS011;7731;50.720;6.912;2024-03-06T04:11:18;2.60;;;2.40;;
15256;SDS011;7731;50.720;6.912;2024-03-06T04:13:49;3.93;;;2.50;;
15256;SDS011;7731;50.720;6.912;2024-03-06T04:16:19;3.53;;;2.63;;
15256;SDS011;7731;50.720;6.912;2024-03-06T04:18:50;5.20;;;3.27;;
15256;SDS011;7731;50.720;6.912;2024-03-06T04:21:22;4.00;;;3.50;;
15256;SDS011;7731;50.720;6.912;2024-03-06T04:23:57;22.47;;;16.73;;
15256;SDS011;7731;50.720;6.912;2024-03-06T04:26:30;7.63;;;4.20;;
15256;SDS011;7731;50.720;6.912;2024-03-06T04:29:01;6.30;;;4.10;;
15256;SDS011;7731;50.720;6.912;2024-03-06T04:31:33;6.13;;;3.80;;
15256;SDS011;7731;50.720;6.912;2024-03-06T04:34:05;5.93;;;4.17;;
15256;SDS011;7731;50.720;6.912;2024-03-06T04:36:38;5.50;;;4.40;;
15256;SDS011;7731;50.720;6.912;2024-03-06T04:39:11;4.40;;;4.00;;
15256;SDS011;7731;50.720;6.912;2024-03-06T04:41:45;3.83;;;3.53;;
15256;SDS011;7731;50.720;6.912;2024-03-06T04:44:15;4.40;;;3.70;;
15256;SDS011;7731;50.720;6.912;2024-03-06T04:46:49;5.43;;;4.90;;
15256;SDS011;7731;50.720;6.912;2024-03-06T04:49:20;6.67;;;5.53;;
15256;SDS011;7731;50.720;6.912;2024-03-06T04:51:50;6.30;;;5.20;;
15256;SDS011;7731;50.720;6.912;2024-03-06T04:54:23;5.20;;;4.40;;
15256;SDS011;7731;50.720;6.912;2024-03-06T04:56:53;5.27;;;4.20;;
15256;SDS011;7731;50.720;6.912;2024-03-06T04:59:24;4.17;;;3.77;;
15256;SDS011;7731;50.720;6.912;2024-03-06T05:01:55;4.57;;;3.80;;
15256;SDS011;7731;50.720;6.912;2024-03-06T05:04:30;4.43;;;4.03;;
15256;SDS011;7731;50.720;6.912;2024-03-06T05:07:14;4.47;;;4.07;;
15256;SDS011;7731;50.720;6.912;2024-03-06T05:10:01;4.60;;;4.00;;
15256;SDS011;7731;50.720;6.912;2024-03-06T05:12:48;6.23;;;3.83;;
15256;SDS011;7731;50.720;6.912;2024-03-06T05:15:33;3.93;;;3.50;;
15256;SDS011;7731;50.720;6.912;2024-03-06T05:18:17;4.17;;;3.80;;
15256;SDS011;7731;50.720;6.912;2024-03-06T05:21:02;4.33;;;3.47;;
15256;SDS011;7731;50.720;6.912;2024-03-06T05:23:46;4.33;;;3.40;;
15256;SDS011;7731;50.720;6.912;2024-03-06T05:26:33;4.07;;;3.67;;
15256;SDS011;7731;50.720;6.912;2024-03-06T05:29:17;6.37;;;3.83;;
15256;SDS011;7731;50.720;6.912;2024-03-06T05:32:02;4.97;;;4.07;;
15256;SDS011;7731;50.720;6.912;2024-03-06T05:34:47;4.60;;;4.20;;
15256;SDS011;7731;50.720;6.912;2024-03-06T05:37:31;4.87;;;4.37;;
15256;SDS011;7731;50.720;6.912;2024-03-06T05:40:18;4.93;;;4.33;;
15256;SDS011;7731;50.720;6.912;2024-03-06T05:43:05;5.50;;;3.80;;
15256;SDS011;7731;50.720;6.912;2024-03-06T05:45:50;4.70;;;3.87;;
15256;SDS011;7731;50.720;6.912;2024-03-06T05:48:34;6.70;;;4.30;;
15256;SDS011;7731;50.720;6.912;2024-03-06T05:51:19;4.77;;;4.27;;
15256;SDS011;7731;50.720;6.912;2024-03-06T05:54:04;6.80;;;4.60;;
15256;SDS011;7731;50.720;6.912;2024-03-06T05:56:49;5.30;;;4.43;;
15256;SDS011;7731;50.720;6.912;2024-03-06T05:59:37;4.63;;;4.23;;
15256;SDS011;7731;50.720;6.912;2024-03-06T06:02:08;6.20;;;4.03;;
15256;SDS011;7731;50.720;6.912;2024-03-06T06:04:38;4.10;;;3.70;;
15256;SDS011;7731;50.720;6.912;2024-03-06T06:07:25;4.87;;;4.37;;
15256;SDS011;7731;50.720;6.912;2024-03-06T06:09:55;4.50;;;4.10;;
15256;SDS011;7731;50.720;6.912;2024-03-06T06:12:36;4.87;;;4.13;;
15256;SDS011;7731;50.720;6.912;2024-03-06T06:15:12;7.40;;;5.47;;
15256;SDS011;7731;50.720;6.912;2024-03-06T06:17:43;17.50;;;12.43;;
15256;SDS011;7731;50.720;6.912;2024-03-06T06:20:15;58.50;;;36.70;;
15256;SDS011;7731;50.720;6.912;2024-03-06T06:22:45;40.60;;;29.83;;
15256;SDS011;7731;50.720;6.912;2024-03-06T06:25:17;17.37;;;13.70;;
15256;SDS011;7731;50.720;6.912;2024-03-06T06:27:48;35.83;;;26.30;;
15256;SDS011;7731;50.720;6.912;2024-03-06T06:30:22;19.77;;;15.33;;
15256;SDS011;7731;50.720;6.912;2024-03-06T06:32:53;30.97;;;19.93;;
15256;SDS011;7731;50.720;6.912;2024-03-06T06:35:24;21.07;;;14.83;;
15256;SDS011;7731;50.720;6.912;2024-03-06T06:37:54;22.43;;;17.73;;
15256;SDS011;7731;50.720;6.912;2024-03-06T06:40:25;12.03;;;9.50;;
15256;SDS011;7731;50.720;6.912;2024-03-06T06:42:56;17.93;;;12.53;;
15256;SDS011;7731;50.720;6.912;2024-03-06T06:45:29;21.03;;;14.80;;
15256;SDS011;7731;50.720;6.912;2024-03-06T06:47:59;12.77;;;10.23;;
15256;SDS011;7731;50.720;6.912;2024-03-06T06:50:30;7.00;;;5.80;;
15256;SDS011;7731;50.720;6.912;2024-03-06T06:53:00;5.00;;;4.60;;
15256;SDS011;7731;50.720;6.912;2024-03-06T06:55:31;6.33;;;5.37;;
15256;SDS011;7731;50.720;6.912;2024-03-06T06:58:05;31.57;;;18.47;;
15256;SDS011;7731;50.720;6.912;2024-03-06T07:00:38;22.27;;;14.00;;
15256;SDS011;7731;50.720;6.912;2024-03-06T07:03:09;32.80;;;18.43;;
15256;SDS011;7731;50.720;6.912;2024-03-06T07:05:39;24.23;;;14.63;;
15256;SDS011;7731;50.720;6.912;2024-03-06T07:08:10;20.40;;;13.00;;
15256;SDS011;7731;50.720;6.912;2024-03-06T07:10:41;24.60;;;13.93;;
15256;SDS011;7731;50.720;6.912;2024-03-06T07:13:11;14.00;;;10.13;;
15256;SDS011;7731;50.720;6.912;2024-03-06T07:15:44;7.43;;;6.70;;
15256;SDS011;7731;50.720;6.912;2024-03-06T07:18:15;6.93;;;5.90;;
15256;SDS011;7731;50.720;6.912;2024-03-06T07:20:45;7.63;;;6.67;;
15256;SDS011;7731;50.720;6.912;2024-03-06T07:23:16;5.80;;;5.20;;
15256;SDS011;7731;50.720;6.912;2024-03-06T07:25:48;5.67;;;5.17;;
15256;SDS011;7731;50.720;6.912;2024-03-06T07:28:18;5.23;;;4.73;;
15256;SDS011;7731;50.720;6.912;2024-03-06T07:30:51;6.57;;;5.90;;
15256;SDS011;7731;50.720;6.912;2024-03-06T07:33:24;5.47;;;4.97;;
15256;SDS011;7731;50.720;6.912;2024-03-06T07:35:54;7.40;;;5.90;;
15256;SDS011;7731;50.720;6.912;2024-03-06T07:38:24;6.10;;;5.50;;
15256;SDS011;7731;50.720;6.912;2024-03-06T07:40:57;6.27;;;5.03;;
15256;SDS011;7731;50.720;6.912;2024-03-06T07:43:28;4.83;;;4.33;;
15256;SDS011;7731;50.720;6.912;2024-03-06T07:46:01;4.63;;;4.23;;
15256;SDS011;7731;50.720;6.912;2024-03-06T07:48:41;5.87;;;5.13;;
15256;SDS011;7731;50.720;6.912;2024-03-06T07:51:14;4.70;;;4.10;;
15256;SDS011;7731;50.720;6.912;2024-03-06T07:53:44;4.63;;;4.10;;
15256;SDS011;7731;50.720;6.912;2024-03-06T07:56:16;3.93;;;3.43;;
15256;SDS011;7731;50.720;6.912;2024-03-06T07:58:47;3.58;;;3.28;;
15256;SDS011;7731;50.720;6.912;2024-03-06T08:01:20;3.70;;;2.60;;
15256;SDS011;7731;50.720;6.912;2024-03-06T08:03:58;3.95;;;2.72;;
15256;SDS011;7731;50.720;6.912;2024-03-06T08:06:29;3.38;;;2.58;;
15256;SDS011;7731;50.720;6.912;2024-03-06T08:09:00;2.40;;;2.20;;
15256;SDS011;7731;50.720;6.912;2024-03-06T08:11:30;3.35;;;2.85;;
15256;SDS011;7731;50.720;6.912;2024-03-06T08:14:01;5.82;;;2.97;;
15256;SDS011;7731;50.720;6.912;2024-03-06T08:16:34;3.50;;;2.92;;
15256;SDS011;7731;50.720;6.912;2024-03-06T08:19:04;2.53;;;2.33;;
15256;SDS011;7731;50.720;6.912;2024-03-06T08:21:34;3.15;;;2.13;;
15256;SDS011;7731;50.720;6.912;2024-03-06T08:24:05;2.83;;;2.15;;
15256;SDS011;7731;50.720;6.912;2024-03-06T08:26:35;4.22;;;2.65;;
15256;SDS011;7731;50.720;6.912;2024-03-06T08:29:06;2.67;;;2.47;;
15256;SDS011;7731;50.720;6.912;2024-03-06T08:31:39;3.20;;;2.90;;
15256;SDS011;7731;50.720;6.912;2024-03-06T08:34:09;2.47;;;2.28;;
15256;SDS011;7731;50.720;6.912;2024-03-06T08:36:43;2.50;;;2.30;;
15256;SDS011;7731;50.720;6.912;2024-03-06T08:39:14;2.65;;;2.30;;
15256;SDS011;7731;50.720;6.912;2024-03-06T08:41:44;3.00;;;2.70;;
15256;SDS011;7731;50.720;6.912;2024-03-06T08:44:14;3.28;;;2.55;;
15256;SDS011;7731;50.720;6.912;2024-03-06T08:46:47;3.60;;;2.90;;
15256;SDS011;7731;50.720;6.912;2024-03-06T08:49:20;3.80;;;2.78;;
15256;SDS011;7731;50.720;6.912;2024-03-06T08:51:50;4.75;;;2.90;;
15256;SDS011;7731;50.720;6.912;2024-03-06T08:54:21;3.85;;;2.88;;
15256;SDS011;7731;50.720;6.912;2024-03-06T08:56:51;2.78;;;2.42;;
15256;SDS011;7731;50.720;6.912;2024-03-06T08:59:26;2.90;;;2.60;;
15256;SDS011;7731;50.720;6.912;2024-03-06T09:02:10;3.03;;;2.63;;
15256;SDS011;7731;50.720;6.912;2024-03-06T09:04:44;3.30;;;2.50;;
15256;SDS011;7731;50.720;6.912;2024-03-06T09:07:15;4.03;;;3.20;;
15256;SDS011;7731;50.720;6.912;2024-03-06T09:09:45;3.80;;;2.63;;
15256;SDS011;7731;50.720;6.912;2024-03-06T09:12:16;3.30;;;3.00;;
15256;SDS011;7731;50.720;6.912;2024-03-06T09:14:48;4.93;;;2.55;;
15256;SDS011;7731;50.720;6.912;2024-03-06T09:17:21;4.90;;;2.60;;
15256;SDS011;7731;50.720;6.912;2024-03-06T09:19:52;7.47;;;6.82;;
15256;SDS011;7731;50.720;6.912;2024-03-06T09:22:35;3.53;;;2.90;;
15256;SDS011;7731;50.720;6.912;2024-03-06T09:25:06;5.20;;;3.53;;
15256;SDS011;7731;50.720;6.912;2024-03-06T09:27:39;4.88;;;2.88;;
15256;SDS011;7731;50.720;6.912;2024-03-06T09:30:11;4.57;;;3.25;;
15256;SDS011;7731;50.720;6.912;2024-03-06T09:32:46;7.18;;;3.42;;
15256;SDS011;7731;50.720;6.912;2024-03-06T09:35:24;2.97;;;2.70;;
15256;SDS011;7731;50.720;6.912;2024-03-06T09:37:55;2.97;;;2.67;;
15256;SDS011;7731;50.720;6.912;2024-03-06T09:40:28;3.80;;;3.10;;
15256;SDS011;7731;50.720;6.912;2024-03-06T09:42:59;5.38;;;4.88;;
15256;SDS011;7731;50.720;6.912;2024-03-06T09:45:29;2.83;;;2.63;;
15256;SDS011;7731;50.720;6.912;2024-03-06T09:48:02;4.30;;;2.72;;
15256;SDS011;7731;50.720;6.912;2024-03-06T09:50:33;3.67;;;2.92;;
15256;SDS011;7731;50.720;6.912;2024-03-06T09:53:08;3.65;;;3.05;;
15256;SDS011;7731;50.720;6.912;2024-03-06T09:55:45;5.07;;;3.33;;
15256;SDS011;7731;50.720;6.912;2024-03-06T09:58:18;8.98;;;8.20;;
15256;SDS011;7731;50.720;6.912;2024-03-06T10:00:49;4.95;;;3.90;;
15256;SDS011;7731;50.720;6.912;2024-03-06T10:03:23;5.70;;;5.20;;
15256;SDS011;7731;50.720;6.912;2024-03-06T10:05:54;5.07;;;3.40;;
15256;SDS011;7731;50.720;6.912;2024-03-06T10:08:28;4.55;;;2.70;;
15256;SDS011;7731;50.720;6.912;2024-03-06T10:10:59;5.60;;;2.80;;
15256;SDS011;7731;50.720;6.912;2024-03-06T10:13:30;3.67;;;2.50;;
15256;SDS011;7731;50.720;6.912;2024-03-06T10:16:01;3.55;;;2.85;;
15256;SDS011;7731;50.720;6.912;2024-03-06T10:18:38;2.88;;;2.67;;
15256;SDS011;7731;50.720;6.912;2024-03-06T10:21:08;4.63;;;3.85;;
15256;SDS011;7731;50.720;6.912;2024-03-06T10:23:39;4.38;;;3.30;;
15256;SDS011;7731;50.720;6.912;2024-03-06T10:26:11;2.95;;;2.55;;
15256;SDS011;7731;50.720;6.912;2024-03-06T10:28:44;3.78;;;2.58;;
15256;SDS011;7731;50.720;6.912;2024-03-06T10:31:15;3.63;;;2.80;;
15256;SDS011;7731;50.720;6.912;2024-03-06T10:33:59;4.55;;;2.72;;
15256;SDS011;7731;50.720;6.912;2024-03-06T10:36:31;3.97;;;2.35;;
15256;SDS011;7731;50.720;6.912;2024-03-06T10:39:04;3.42;;;2.67;;
15256;SDS011;7731;50.720;6.912;2024-03-06T10:41:41;2.78;;;2.42;;
15256;SDS011;7731;50.720;6.912;2024-03-06T10:44:13;4.40;;;3.60;;
15256;SDS011;7731;50.720;6.912;2024-03-06T10:46:55;3.38;;;2.95;;
15256;SDS011;7731;50.720;6.912;2024-03-06T10:49:31;4.22;;;2.67;;
15256;SDS011;7731;50.720;6.912;2024-03-06T10:52:03;8.23;;;6.90;;
15256;SDS011;7731;50.720;6.912;2024-03-06T10:54:35;6.43;;;5.82;;
15256;SDS011;7731;50.720;6.912;2024-03-06T10:57:08;2.97;;;2.65;;
15256;SDS011;7731;50.720;6.912;2024-03-06T10:59:41;6.45;;;5.13;;
15256;SDS011;7731;50.720;6.912;2024-03-06T11:02:15;9.73;;;7.78;;
15256;SDS011;7731;50.720;6.912;2024-03-06T11:04:54;8.68;;;4.47;;
15256;SDS011;7731;50.720;6.912;2024-03-06T11:07:25;6.97;;;3.25;;
15256;SDS011;7731;50.720;6.912;2024-03-06T11:09:57;12.15;;;9.82;;
15256;SDS011;7731;50.720;6.912;2024-03-06T11:12:32;3.83;;;2.95;;
15256;SDS011;7731;50.720;6.912;2024-03-06T11:15:09;4.22;;;2.90;;
15256;SDS011;7731;50.720;6.912;2024-03-06T11:17:43;3.47;;;2.65;;
15256;SDS011;7731;50.720;6.912;2024-03-06T11:20:17;3.17;;;2.60;;
15256;SDS011;7731;50.720;6.912;2024-03-06T11:23:04;3.22;;;2.33;;
15256;SDS011;7731;50.720;6.912;2024-03-06T11:28:35;3.40;;;2.67;;
15256;SDS011;7731;50.720;6.912;2024-03-06T11:31:16;5.15;;;2.95;;
15256;SDS011;7731;50.720;6.912;2024-03-06T11:33:52;5.88;;;4.95;;
15256;SDS011;7731;50.720;6.912;2024-03-06T11:36:27;6.05;;;4.75;;
15256;SDS011;7731;50.720;6.912;2024-03-06T11:38:58;4.20;;;3.80;;
15256;SDS011;7731;50.720;6.912;2024-03-06T11:41:46;6.55;;;5.40;;
15256;SDS011;7731;50.720;6.912;2024-03-06T11:44:19;11.27;;;9.52;;
15256;SDS011;7731;50.720;6.912;2024-03-06T11:46:57;9.18;;;6.35;;
15256;SDS011;7731;50.720;6.912;2024-03-06T11:49:30;4.68;;;3.25;;
15256;SDS011;7731;50.720;6.912;2024-03-06T11:52:07;4.03;;;3.00;;
15256;SDS011;7731;50.720;6.912;2024-03-06T11:54:41;6.43;;;5.05;;
15256;SDS011;7731;50.720;6.912;2024-03-06T11:57:11;7.57;;;6.22;;
15256;SDS011;7731;50.720;6.912;2024-03-06T11:59:42;4.60;;;4.10;;
15256;SDS011;7731;50.720;6.912;2024-03-06T12:02:15;5.45;;;3.70;;
15256;SDS011;7731;50.720;6.912;2024-03-06T12:04:46;3.42;;;3.10;;
15256;SDS011;7731;50.720;6.912;2024-03-06T12:07:20;4.97;;;4.00;;
15256;SDS011;7731;50.720;6.912;2024-03-06T12:09:51;7.40;;;4.22;;
15256;SDS011;7731;50.720;6.912;2024-03-06T12:12:23;4.50;;;3.72;;
15256;SDS011;7731;50.720;6.912;2024-03-06T12:14:57;4.38;;;4.07;;
15256;SDS011;7731;50.720;6.912;2024-03-06T12:17:30;6.20;;;4.88;;
15256;SDS011;7731;50.720;6.912;2024-03-06T12:20:01;4.15;;;3.83;;
15256;SDS011;7731;50.720;6.912;2024-03-06T12:22:36;4.28;;;3.80;;
15256;SDS011;7731;50.720;6.912;2024-03-06T12:25:17;7.15;;;4.88;;
15256;SDS011;7731;50.720;6.912;2024-03-06T12:27:49;6.65;;;5.38;;
15256;SDS011;7731;50.720;6.912;2024-03-06T12:30:26;5.75;;;5.13;;
15256;SDS011;7731;50.720;6.912;2024-03-06T12:32:56;8.82;;;7.38;;
15256;SDS011;7731;50.720;6.912;2024-03-06T12:35:31;6.85;;;6.25;;
15256;SDS011;7731;50.720;6.912;2024-03-06T12:38:13;5.55;;;5.00;;
15256;SDS011;7731;50.720;6.912;2024-03-06T12:40:45;5.82;;;5.25;;
15256;SDS011;7731;50.720;6.912;2024-03-06T12:43:15;4.40;;;4.00;;
15256;SDS011;7731;50.720;6.912;2024-03-06T12:45:45;7.13;;;4.13;;
15256;SDS011;7731;50.720;6.912;2024-03-06T12:48:16;6.63;;;5.30;;
15256;SDS011;7731;50.720;6.912;2024-03-06T12:50:48;7.00;;;6.30;;
15256;SDS011;7731;50.720;6.912;2024-03-06T12:53:23;4.75;;;4.18;;
15256;SDS011;7731;50.720;6.912;2024-03-06T12:55:54;6.60;;;5.97;;
15256;SDS011;7731;50.720;6.912;2024-03-06T12:58:24;4.70;;;3.42;;
15256;SDS011;7731;50.720;6.912;2024-03-06T13:00:55;5.65;;;5.13;;
15256;SDS011;7731;50.720;6.912;2024-03-06T13:03:25;4.93;;;4.43;;
15256;SDS011;7731;50.720;6.912;2024-03-06T13:05:56;5.38;;;3.53;;
15256;SDS011;7731;50.720;6.912;2024-03-06T13:08:29;3.50;;;3.20;;
15256;SDS011;7731;50.720;6.912;2024-03-06T13:10:59;4.55;;;4.15;;
15256;SDS011;7731;50.720;6.912;2024-03-06T13:13:30;7.45;;;5.05;;
15256;SDS011;7731;50.720;6.912;2024-03-06T13:16:01;3.85;;;3.55;;
15256;SDS011;7731;50.720;6.912;2024-03-06T13:18:35;3.97;;;3.00;;
15256;SDS011;7731;50.720;6.912;2024-03-06T13:21:06;4.65;;;3.50;;
15256;SDS011;7731;50.720;6.912;2024-03-06T13:23:39;4.63;;;3.85;;
15256;SDS011;7731;50.720;6.912;2024-03-06T13:26:10;4.68;;;3.45;;
15256;SDS011;7731;50.720;6.912;2024-03-06T13:28:40;3.85;;;3.25;;
15256;SDS011;7731;50.720;6.912;2024-03-06T13:31:18;5.60;;;3.70;;
15256;SDS011;7731;50.720;6.912;2024-03-06T13:33:48;3.75;;;2.90;;
15256;SDS011;7731;50.720;6.912;2024-03-06T13:36:20;3.78;;;3.00;;
15256;SDS011;7731;50.720;6.912;2024-03-06T13:38:53;5.70;;;3.17;;
15256;SDS011;7731;50.720;6.912;2024-03-06T13:41:23;3.50;;;3.20;;
15256;SDS011;7731;50.720;6.912;2024-03-06T13:43:57;3.53;;;3.00;;
15256;SDS011;7731;50.720;6.912;2024-03-06T13:46:28;3.80;;;3.50;;
15256;SDS011;7731;50.720;6.912;2024-03-06T13:48:59;4.35;;;3.28;;
15256;SDS011;7731;50.720;6.912;2024-03-06T13:51:30;4.82;;;3.28;;
15256;SDS011;7731;50.720;6.912;2024-03-06T13:54:03;5.63;;;3.70;;
15256;SDS011;7731;50.720;6.912;2024-03-06T13:56:36;4.00;;;3.33;;
15256;SDS011;7731;50.720;6.912;2024-03-06T13:59:07;4.03;;;3.70;;
15256;SDS011;7731;50.720;6.912;2024-03-06T14:01:38;7.45;;;4.43;;
15256;SDS011;7731;50.720;6.912;2024-03-06T14:04:09;6.20;;;3.70;;
15256;SDS011;7731;50.720;6.912;2024-03-06T14:06:39;4.40;;;3.97;;
15256;SDS011;7731;50.720;6.912;2024-03-06T14:09:12;4.60;;;4.18;;
15256;SDS011;7731;50.720;6.912;2024-03-06T14:11:43;5.00;;;4.20;;
15256;SDS011;7731;50.720;6.912;2024-03-06T14:14:14;4.05;;;3.65;;
15256;SDS011;7731;50.720;6.912;2024-03-06T14:16:45;5.40;;;3.80;;
15256;SDS011;7731;50.720;6.912;2024-03-06T14:19:16;4.32;;;3.92;;
15256;SDS011;7731;50.720;6.912;2024-03-06T14:21:48;4.50;;;3.70;;
15256;SDS011;7731;50.720;6.912;2024-03-06T14:24:21;5.47;;;4.25;;
15256;SDS011;7731;50.720;6.912;2024-03-06T14:26:52;4.85;;;4.05;;
15256;SDS011;7731;50.720;6.912;2024-03-06T14:29:22;5.22;;;4.28;;
15256;SDS011;7731;50.720;6.912;2024-03-06T14:31:53;4.45;;;3.67;;
15256;SDS011;7731;50.720;6.912;2024-03-06T14:34:24;4.03;;;3.67;;
15256;SDS011;7731;50.720;6.912;2024-03-06T14:36:54;7.55;;;4.10;;
15256;SDS011;7731;50.720;6.912;2024-03-06T14:39:27;3.97;;;3.40;;
15256;SDS011;7731;50.720;6.912;2024-03-06T14:41:59;3.92;;;3.60;;
15256;SDS011;7731;50.720;6.912;2024-03-06T14:44:30;4.28;;;3.88;;
15256;SDS011;7731;50.720;6.912;2024-03-06T14:47:01;4.07;;;3.67;;
15256;SDS011;7731;50.720;6.912;2024-03-06T14:49:32;3.60;;;3.30;;
15256;SDS011;7731;50.720;6.912;2024-03-06T14:52:04;5.38;;;4.13;;
15256;SDS011;7731;50.720;6.912;2024-03-06T14:54:38;5.18;;;4.35;;
15256;SDS011;7731;50.720;6.912;2024-03-06T14:57:10;4.40;;;3.15;;
15256;SDS011;7731;50.720;6.912;2024-03-06T14:59:41;4.53;;;3.58;;
15256;SDS011;7731;50.720;6.912;2024-03-06T15:02:12;10.40;;;4.18;;
15256;SDS011;7731;50.720;6.912;2024-03-06T15:04:43;3.90;;;3.55;;
15256;SDS011;7731;50.720;6.912;2024-03-06T15:07:14;4.13;;;3.70;;
15256;SDS011;7731;50.720;6.912;2024-03-06T15:09:47;5.30;;;4.00;;
15256;SDS011;7731;50.720;6.912;2024-03-06T15:12:18;7.20;;;6.32;;
15256;SDS011;7731;50.720;6.912;2024-03-06T15:14:48;4.90;;;4.40;;
15256;SDS011;7731;50.720;6.912;2024-03-06T15:17:24;5.20;;;3.60;;
15256;SDS011;7731;50.720;6.912;2024-03-06T15:19:55;5.32;;;3.70;;
15256;SDS011;7731;50.720;6.912;2024-03-06T15:22:26;5.25;;;3.53;;
15256;SDS011;7731;50.720;6.912;2024-03-06T15:24:58;4.45;;;3.33;;
15256;SDS011;7731;50.720;6.912;2024-03-06T15:27:29;3.55;;;3.25;;
15256;SDS011;7731;50.720;6.912;2024-03-06T15:30:00;5.65;;;3.50;;
15256;SDS011;7731;50.720;6.912;2024-03-06T15:32:34;4.68;;;3.83;;
15256;SDS011;7731;50.720;6.912;2024-03-06T15:35:08;4.65;;;4.10;;
15256;SDS011;7731;50.720;6.912;2024-03-06T15:37:41;5.25;;;3.97;;